sensor_id;sensor_type;location;lat;lon;timestamp;temperature;humidity
17740;DHT22;8990;33.226;-97.150;2022-07-23T00:01:06;35.90;98.40
17740;DHT22;8990;33.226;-97.150;2022-07-23T00:03:35;35.80;98.60
17740;DHT22;8990;33.226;-97.150;2022-07-23T00:06:04;35.80;98.40
17740;DHT22;8990;33.226;-97.150;2022-07-23T00:08:33;35.80;98.60
17740;DHT22;8990;33.226;-97.150;2022-07-23T00:11:04;35.70;98.70
17740;DHT22;8990;33.226;-97.150;2022-07-23T00:13:34;35.70;98.80
17740;DHT22;8990;33.226;-97.150;2022-07-23T00:16:04;35.70;98.80
17740;DHT22;8990;33.226;-97.150;2022-07-23T00:18:34;35.70;98.90
17740;DHT22;8990;33.226;-97.150;2022-07-23T00:21:03;35.60;99.00
17740;DHT22;8990;33.226;-97.150;2022-07-23T00:23:33;35.60;99.10
17740;DHT22;8990;33.226;-97.150;2022-07-23T00:26:04;35.50;99.00
17740;DHT22;8990;33.226;-97.150;2022-07-23T00:28:35;35.50;99.10
17740;DHT22;8990;33.226;-97.150;2022-07-23T00:31:04;35.40;99.20
17740;DHT22;8990;33.226;-97.150;2022-07-23T00:33:33;35.40;99.10
17740;DHT22;8990;33.226;-97.150;2022-07-23T00:36:03;35.40;99.20
17740;DHT22;8990;33.226;-97.150;2022-07-23T00:38:32;35.40;99.10
17740;DHT22;8990;33.226;-97.150;2022-07-23T00:41:04;35.40;99.20
17740;DHT22;8990;33.226;-97.150;2022-07-23T00:43:33;35.30;99.30
17740;DHT22;8990;33.226;-97.150;2022-07-23T00:46:04;35.30;99.40
17740;DHT22;8990;33.226;-97.150;2022-07-23T00:48:33;35.20;99.70
17740;DHT22;8990;33.226;-97.150;2022-07-23T00:51:03;35.20;99.40
17740;DHT22;8990;33.226;-97.150;2022-07-23T00:53:32;35.20;99.40
17740;DHT22;8990;33.226;-97.150;2022-07-23T00:56:05;35.10;99.50
17740;DHT22;8990;33.226;-97.150;2022-07-23T00:58:35;35.10;99.40
17740;DHT22;8990;33.226;-97.150;2022-07-23T01:01:06;35.00;99.40
17740;DHT22;8990;33.226;-97.150;2022-07-23T01:03:36;34.90;99.60
17740;DHT22;8990;33.226;-97.150;2022-07-23T01:06:06;34.80;99.70
17740;DHT22;8990;33.226;-97.150;2022-07-23T01:08:35;34.80;99.80
17740;DHT22;8990;33.226;-97.150;2022-07-23T01:11:06;34.70;99.80
17740;DHT22;8990;33.226;-97.150;2022-07-23T01:13:35;34.70;99.70
17740;DHT22;8990;33.226;-97.150;2022-07-23T01:16:06;34.60;99.80
17740;DHT22;8990;33.226;-97.150;2022-07-23T01:18:35;34.50;99.90
17740;DHT22;8990;33.226;-97.150;2022-07-23T01:21:06;34.50;99.90
17740;DHT22;8990;33.226;-97.150;2022-07-23T01:23:37;34.50;99.90
17740;DHT22;8990;33.226;-97.150;2022-07-23T01:26:07;34.40;99.90
17740;DHT22;8990;33.226;-97.150;2022-07-23T01:28:37;34.50;99.90
17740;DHT22;8990;33.226;-97.150;2022-07-23T01:31:06;34.40;99.90
17740;DHT22;8990;33.226;-97.150;2022-07-23T01:33:36;34.40;99.90
17740;DHT22;8990;33.226;-97.150;2022-07-23T01:36:07;34.30;99.90
17740;DHT22;8990;33.226;-97.150;2022-07-23T01:38:37;34.30;99.90
17740;DHT22;8990;33.226;-97.150;2022-07-23T01:41:07;34.20;99.90
17740;DHT22;8990;33.226;-97.150;2022-07-23T01:43:36;34.10;99.90
17740;DHT22;8990;33.226;-97.150;2022-07-23T01:46:06;34.10;99.90
17740;DHT22;8990;33.226;-97.150;2022-07-23T01:48:41;34.00;99.90
17740;DHT22;8990;33.226;-97.150;2022-07-23T01:51:33;33.90;99.90
17740;DHT22;8990;33.226;-97.150;2022-07-23T01:54:11;33.90;99.90
17740;DHT22;8990;33.226;-97.150;2022-07-23T01:56:40;33.80;99.90
17740;DHT22;8990;33.226;-97.150;2022-07-23T01:59:10;33.80;99.90
17740;DHT22;8990;33.226;-97.150;2022-07-23T02:01:39;33.70;99.90
17740;DHT22;8990;33.226;-97.150;2022-07-23T02:04:08;33.80;99.90
17740;DHT22;8990;33.226;-97.150;2022-07-23T02:06:38;33.80;99.90
17740;DHT22;8990;33.226;-97.150;2022-07-23T02:09:07;33.80;99.90
17740;DHT22;8990;33.226;-97.150;2022-07-23T02:11:39;33.80;99.90
17740;DHT22;8990;33.226;-97.150;2022-07-23T02:14:08;33.80;99.90
17740;DHT22;8990;33.226;-97.150;2022-07-23T02:16:37;33.80;99.90
17740;DHT22;8990;33.226;-97.150;2022-07-23T02:19:06;33.80;99.90
17740;DHT22;8990;33.226;-97.150;2022-07-23T02:21:37;33.80;99.90
17740;DHT22;8990;33.226;-97.150;2022-07-23T02:24:06;33.70;99.90
17740;DHT22;8990;33.226;-97.150;2022-07-23T02:26:39;33.70;99.90
17740;DHT22;8990;33.226;-97.150;2022-07-23T02:29:08;33.60;99.90
17740;DHT22;8990;33.226;-97.150;2022-07-23T02:31:38;33.70;99.90
17740;DHT22;8990;33.226;-97.150;2022-07-23T02:34:08;33.70;99.90
17740;DHT22;8990;33.226;-97.150;2022-07-23T02:36:39;33.60;99.90
17740;DHT22;8990;33.226;-97.150;2022-07-23T02:39:09;33.60;99.90
17740;DHT22;8990;33.226;-97.150;2022-07-23T02:41:41;33.60;99.90
17740;DHT22;8990;33.226;-97.150;2022-07-23T02:44:10;33.60;99.90
17740;DHT22;8990;33.226;-97.150;2022-07-23T02:46:41;33.50;99.90
17740;DHT22;8990;33.226;-97.150;2022-07-23T02:49:10;33.30;99.90
17740;DHT22;8990;33.226;-97.150;2022-07-23T02:51:39;33.30;99.90
17740;DHT22;8990;33.226;-97.150;2022-07-23T02:54:09;33.20;99.90
17740;DHT22;8990;33.226;-97.150;2022-07-23T02:56:40;33.10;99.90
17740;DHT22;8990;33.226;-97.150;2022-07-23T02:59:12;33.00;99.90
17740;DHT22;8990;33.226;-97.150;2022-07-23T03:01:41;32.90;99.90
17740;DHT22;8990;33.226;-97.150;2022-07-23T03:04:10;32.80;99.90
17740;DHT22;8990;33.226;-97.150;2022-07-23T03:06:42;32.60;99.90
17740;DHT22;8990;33.226;-97.150;2022-07-23T03:09:12;32.40;99.90
17740;DHT22;8990;33.226;-97.150;2022-07-23T03:11:44;32.30;99.90
17740;DHT22;8990;33.226;-97.150;2022-07-23T03:14:13;32.20;99.90
17740;DHT22;8990;33.226;-97.150;2022-07-23T03:16:43;32.10;99.90
17740;DHT22;8990;33.226;-97.150;2022-07-23T03:19:13;32.10;99.90
17740;DHT22;8990;33.226;-97.150;2022-07-23T03:21:42;32.10;99.90
17740;DHT22;8990;33.226;-97.150;2022-07-23T03:24:12;32.10;99.90
17740;DHT22;8990;33.226;-97.150;2022-07-23T03:26:46;32.10;99.90
17740;DHT22;8990;33.226;-97.150;2022-07-23T03:29:15;32.10;99.90
17740;DHT22;8990;33.226;-97.150;2022-07-23T03:31:45;32.10;99.90
17740;DHT22;8990;33.226;-97.150;2022-07-23T03:34:14;32.00;99.90
17740;DHT22;8990;33.226;-97.150;2022-07-23T03:36:45;31.90;99.90
17740;DHT22;8990;33.226;-97.150;2022-07-23T03:39:15;31.80;99.90
17740;DHT22;8990;33.226;-97.150;2022-07-23T03:41:46;31.70;99.90
17740;DHT22;8990;33.226;-97.150;2022-07-23T03:44:16;31.60;99.90
17740;DHT22;8990;33.226;-97.150;2022-07-23T03:46:45;31.60;99.90
17740;DHT22;8990;33.226;-97.150;2022-07-23T03:49:14;31.50;99.90
17740;DHT22;8990;33.226;-97.150;2022-07-23T03:51:44;31.40;99.90
17740;DHT22;8990;33.226;-97.150;2022-07-23T03:54:13;31.40;99.90
17740;DHT22;8990;33.226;-97.150;2022-07-23T03:56:42;31.40;99.90
17740;DHT22;8990;33.226;-97.150;2022-07-23T03:59:13;31.40;99.90
17740;DHT22;8990;33.226;-97.150;2022-07-23T04:01:44;31.40;99.90
17740;DHT22;8990;33.226;-97.150;2022-07-23T04:04:13;31.40;99.90
17740;DHT22;8990;33.226;-97.150;2022-07-23T04:06:44;31.30;99.90
17740;DHT22;8990;33.226;-97.150;2022-07-23T04:09:15;31.20;99.90
17740;DHT22;8990;33.226;-97.150;2022-07-23T04:11:44;31.20;99.90
17740;DHT22;8990;33.226;-97.150;2022-07-23T04:14:15;31.10;99.90
17740;DHT22;8990;33.226;-97.150;2022-07-23T04:16:44;31.10;99.90
17740;DHT22;8990;33.226;-97.150;2022-07-23T04:19:14;31.10;99.90
17740;DHT22;8990;33.226;-97.150;2022-07-23T04:21:55;31.10;99.90
17740;DHT22;8990;33.226;-97.150;2022-07-23T04:24:24;31.00;99.90
17740;DHT22;8990;33.226;-97.150;2022-07-23T04:26:53;31.00;99.90
17740;DHT22;8990;33.226;-97.150;2022-07-23T04:29:25;31.00;99.90
17740;DHT22;8990;33.226;-97.150;2022-07-23T04:31:54;31.00;99.90
17740;DHT22;8990;33.226;-97.150;2022-07-23T04:34:24;31.00;99.90
17740;DHT22;8990;33.226;-97.150;2022-07-23T04:36:54;31.00;99.90
17740;DHT22;8990;33.226;-97.150;2022-07-23T04:39:26;31.10;99.90
17740;DHT22;8990;33.226;-97.150;2022-07-23T04:41:55;31.10;99.90
17740;DHT22;8990;33.226;-97.150;2022-07-23T04:44:26;31.00;99.90
17740;DHT22;8990;33.226;-97.150;2022-07-23T04:46:56;30.90;99.90
17740;DHT22;8990;33.226;-97.150;2022-07-23T04:49:27;30.80;99.90
17740;DHT22;8990;33.226;-97.150;2022-07-23T04:51:55;30.80;99.90
17740;DHT22;8990;33.226;-97.150;2022-07-23T04:54:25;30.70;99.90
17740;DHT22;8990;33.226;-97.150;2022-07-23T04:56:55;30.70;99.90
17740;DHT22;8990;33.226;-97.150;2022-07-23T04:59:25;30.60;99.90
17740;DHT22;8990;33.226;-97.150;2022-07-23T05:02:00;30.60;99.90
17740;DHT22;8990;33.226;-97.150;2022-07-23T05:04:29;30.50;99.90
17740;DHT22;8990;33.226;-97.150;2022-07-23T05:06:59;30.40;99.90
17740;DHT22;8990;33.226;-97.150;2022-07-23T05:09:28;30.40;99.90
17740;DHT22;8990;33.226;-97.150;2022-07-23T05:11:57;30.40;99.90
17740;DHT22;8990;33.226;-97.150;2022-07-23T05:14:29;30.40;99.90
17740;DHT22;8990;33.226;-97.150;2022-07-23T05:17:00;30.40;99.90
17740;DHT22;8990;33.226;-97.150;2022-07-23T05:19:29;30.30;99.90
17740;DHT22;8990;33.226;-97.150;2022-07-23T05:21:58;30.30;99.90
17740;DHT22;8990;33.226;-97.150;2022-07-23T05:24:27;30.20;99.90
17740;DHT22;8990;33.226;-97.150;2022-07-23T05:26:56;30.10;99.90
17740;DHT22;8990;33.226;-97.150;2022-07-23T05:29:26;30.10;99.90
17740;DHT22;8990;33.226;-97.150;2022-07-23T05:31:57;30.00;99.90
17740;DHT22;8990;33.226;-97.150;2022-07-23T05:34:28;30.00;99.90
17740;DHT22;8990;33.226;-97.150;2022-07-23T05:36:58;29.90;99.90
17740;DHT22;8990;33.226;-97.150;2022-07-23T05:39:27;29.90;99.90
17740;DHT22;8990;33.226;-97.150;2022-07-23T05:41:58;29.90;99.90
17740;DHT22;8990;33.226;-97.150;2022-07-23T05:44:27;29.80;99.90
17740;DHT22;8990;33.226;-97.150;2022-07-23T05:46:58;29.80;99.90
17740;DHT22;8990;33.226;-97.150;2022-07-23T05:49:29;29.80;99.90
17740;DHT22;8990;33.226;-97.150;2022-07-23T05:52:13;29.70;99.90
17740;DHT22;8990;33.226;-97.150;2022-07-23T05:55:01;29.70;99.90
17740;DHT22;8990;33.226;-97.150;2022-07-23T05:57:31;29.70;99.90
17740;DHT22;8990;33.226;-97.150;2022-07-23T06:00:01;29.70;99.90
17740;DHT22;8990;33.226;-97.150;2022-07-23T06:02:42;29.70;99.90
17740;DHT22;8990;33.226;-97.150;2022-07-23T06:05:12;29.60;99.90
17740;DHT22;8990;33.226;-97.150;2022-07-23T06:07:42;29.60;99.90
17740;DHT22;8990;33.226;-97.150;2022-07-23T06:10:11;29.60;99.90
17740;DHT22;8990;33.226;-97.150;2022-07-23T06:12:40;29.50;99.90
17740;DHT22;8990;33.226;-97.150;2022-07-23T06:15:10;29.50;99.90
17740;DHT22;8990;33.226;-97.150;2022-07-23T06:17:42;29.50;99.90
17740;DHT22;8990;33.226;-97.150;2022-07-23T06:20:11;29.40;99.90
17740;DHT22;8990;33.226;-97.150;2022-07-23T06:22:41;29.40;99.90
17740;DHT22;8990;33.226;-97.150;2022-07-23T06:25:10;29.30;99.90
17740;DHT22;8990;33.226;-97.150;2022-07-23T06:27:39;29.30;99.90
17740;DHT22;8990;33.226;-97.150;2022-07-23T06:30:13;29.30;99.90
17740;DHT22;8990;33.226;-97.150;2022-07-23T06:32:44;29.40;99.90
17740;DHT22;8990;33.226;-97.150;2022-07-23T06:35:15;29.30;99.90
17740;DHT22;8990;33.226;-97.150;2022-07-23T06:37:47;29.40;99.90
17740;DHT22;8990;33.226;-97.150;2022-07-23T06:40:17;29.40;99.90
17740;DHT22;8990;33.226;-97.150;2022-07-23T06:42:45;29.30;99.90
17740;DHT22;8990;33.226;-97.150;2022-07-23T06:45:23;29.20;99.90
17740;DHT22;8990;33.226;-97.150;2022-07-23T06:47:54;29.20;99.90
17740;DHT22;8990;33.226;-97.150;2022-07-23T06:50:24;29.10;99.90
17740;DHT22;8990;33.226;-97.150;2022-07-23T06:52:53;29.10;99.90
17740;DHT22;8990;33.226;-97.150;2022-07-23T06:55:24;29.10;99.90
17740;DHT22;8990;33.226;-97.150;2022-07-23T06:57:53;29.10;99.90
17740;DHT22;8990;33.226;-97.150;2022-07-23T07:00:22;29.10;99.90
17740;DHT22;8990;33.226;-97.150;2022-07-23T07:02:55;29.10;99.90
17740;DHT22;8990;33.226;-97.150;2022-07-23T07:05:25;29.00;99.90
17740;DHT22;8990;33.226;-97.150;2022-07-23T07:07:54;29.00;99.90
17740;DHT22;8990;33.226;-97.150;2022-07-23T07:10:24;29.00;99.90
17740;DHT22;8990;33.226;-97.150;2022-07-23T07:12:53;29.00;99.90
17740;DHT22;8990;33.226;-97.150;2022-07-23T07:15:23;29.10;99.90
17740;DHT22;8990;33.226;-97.150;2022-07-23T07:17:52;29.10;99.90
17740;DHT22;8990;33.226;-97.150;2022-07-23T07:20:22;29.10;99.90
17740;DHT22;8990;33.226;-97.150;2022-07-23T07:22:52;29.00;99.90
17740;DHT22;8990;33.226;-97.150;2022-07-23T07:25:21;29.00;99.90
17740;DHT22;8990;33.226;-97.150;2022-07-23T07:27:50;29.00;99.90
17740;DHT22;8990;33.226;-97.150;2022-07-23T07:30:19;28.90;99.90
17740;DHT22;8990;33.226;-97.150;2022-07-23T07:32:48;28.90;99.90
17740;DHT22;8990;33.226;-97.150;2022-07-23T07:35:17;28.80;99.90
17740;DHT22;8990;33.226;-97.150;2022-07-23T07:37:48;28.80;99.90
17740;DHT22;8990;33.226;-97.150;2022-07-23T07:40:17;28.70;99.90
17740;DHT22;8990;33.226;-97.150;2022-07-23T07:42:47;28.70;99.90
17740;DHT22;8990;33.226;-97.150;2022-07-23T07:45:16;28.70;99.90
17740;DHT22;8990;33.226;-97.150;2022-07-23T07:47:46;28.70;99.90
17740;DHT22;8990;33.226;-97.150;2022-07-23T07:50:15;28.70;99.90
17740;DHT22;8990;33.226;-97.150;2022-07-23T07:52:44;28.70;99.90
17740;DHT22;8990;33.226;-97.150;2022-07-23T07:55:15;28.80;99.90
17740;DHT22;8990;33.226;-97.150;2022-07-23T07:57:44;28.80;99.90
17740;DHT22;8990;33.226;-97.150;2022-07-23T08:00:14;28.80;99.90
17740;DHT22;8990;33.226;-97.150;2022-07-23T08:02:44;28.80;99.90
17740;DHT22;8990;33.226;-97.150;2022-07-23T08:05:14;28.70;99.90
17740;DHT22;8990;33.226;-97.150;2022-07-23T08:07:43;28.70;99.90
17740;DHT22;8990;33.226;-97.150;2022-07-23T08:10:12;28.60;99.90
17740;DHT22;8990;33.226;-97.150;2022-07-23T08:12:45;28.60;99.90
17740;DHT22;8990;33.226;-97.150;2022-07-23T08:15:18;28.50;99.90
17740;DHT22;8990;33.226;-97.150;2022-07-23T08:17:47;28.50;99.90
17740;DHT22;8990;33.226;-97.150;2022-07-23T08:20:18;28.50;99.90
17740;DHT22;8990;33.226;-97.150;2022-07-23T08:22:49;28.40;99.90
17740;DHT22;8990;33.226;-97.150;2022-07-23T08:25:24;28.40;99.90
17740;DHT22;8990;33.226;-97.150;2022-07-23T08:27:56;28.30;99.90
17740;DHT22;8990;33.226;-97.150;2022-07-23T08:30:27;28.40;99.90
17740;DHT22;8990;33.226;-97.150;2022-07-23T08:32:58;28.40;99.90
17740;DHT22;8990;33.226;-97.150;2022-07-23T08:35:29;28.40;99.90
17740;DHT22;8990;33.226;-97.150;2022-07-23T08:38:00;28.40;99.90
17740;DHT22;8990;33.226;-97.150;2022-07-23T08:40:31;28.40;99.90
17740;DHT22;8990;33.226;-97.150;2022-07-23T08:43:05;28.30;99.90
17740;DHT22;8990;33.226;-97.150;2022-07-23T08:45:38;28.20;99.90
17740;DHT22;8990;33.226;-97.150;2022-07-23T08:48:11;28.20;99.90
17740;DHT22;8990;33.226;-97.150;2022-07-23T08:50:43;28.20;99.90
17740;DHT22;8990;33.226;-97.150;2022-07-23T08:53:13;28.10;99.90
17740;DHT22;8990;33.226;-97.150;2022-07-23T08:55:44;28.10;99.90
17740;DHT22;8990;33.226;-97.150;2022-07-23T08:58:15;28.10;99.90
17740;DHT22;8990;33.226;-97.150;2022-07-23T09:00:46;28.00;99.90
17740;DHT22;8990;33.226;-97.150;2022-07-23T09:03:18;28.00;99.90
17740;DHT22;8990;33.226;-97.150;2022-07-23T09:05:50;27.90;99.90
17740;DHT22;8990;33.226;-97.150;2022-07-23T09:08:20;28.00;99.90
17740;DHT22;8990;33.226;-97.150;2022-07-23T09:10:53;28.00;99.90
17740;DHT22;8990;33.226;-97.150;2022-07-23T09:13:36;27.90;99.90
17740;DHT22;8990;33.226;-97.150;2022-07-23T09:16:09;27.90;99.90
17740;DHT22;8990;33.226;-97.150;2022-07-23T09:18:42;27.90;99.90
17740;DHT22;8990;33.226;-97.150;2022-07-23T09:21:23;27.80;99.90
17740;DHT22;8990;33.226;-97.150;2022-07-23T09:23:58;27.80;99.90
17740;DHT22;8990;33.226;-97.150;2022-07-23T09:26:32;27.80;99.90
17740;DHT22;8990;33.226;-97.150;2022-07-23T09:29:06;27.70;99.90
17740;DHT22;8990;33.226;-97.150;2022-07-23T09:31:46;27.70;99.90
17740;DHT22;8990;33.226;-97.150;2022-07-23T09:34:19;27.70;99.90
17740;DHT22;8990;33.226;-97.150;2022-07-23T09:36:50;27.70;99.90
17740;DHT22;8990;33.226;-97.150;2022-07-23T09:39:27;27.60;99.90
17740;DHT22;8990;33.226;-97.150;2022-07-23T09:41:59;27.60;99.90
17740;DHT22;8990;33.226;-97.150;2022-07-23T09:44:43;27.50;99.90
17740;DHT22;8990;33.226;-97.150;2022-07-23T09:47:14;27.50;99.90
17740;DHT22;8990;33.226;-97.150;2022-07-23T09:49:58;27.50;99.90
17740;DHT22;8990;33.226;-97.150;2022-07-23T09:52:29;27.40;99.90
17740;DHT22;8990;33.226;-97.150;2022-07-23T09:55:00;27.50;99.90
17740;DHT22;8990;33.226;-97.150;2022-07-23T09:57:31;27.40;99.90
17740;DHT22;8990;33.226;-97.150;2022-07-23T10:00:05;27.40;99.90
17740;DHT22;8990;33.226;-97.150;2022-07-23T10:02:36;27.40;99.90
17740;DHT22;8990;33.226;-97.150;2022-07-23T10:05:24;27.40;99.90
17740;DHT22;8990;33.226;-97.150;2022-07-23T10:08:32;27.30;99.90
17740;DHT22;8990;33.226;-97.150;2022-07-23T10:11:20;27.20;99.90
17740;DHT22;8990;33.226;-97.150;2022-07-23T10:14:02;27.20;99.90
17740;DHT22;8990;33.226;-97.150;2022-07-23T10:16:54;27.10;99.90
17740;DHT22;8990;33.226;-97.150;2022-07-23T10:19:23;27.10;99.90
17740;DHT22;8990;33.226;-97.150;2022-07-23T10:21:57;27.00;99.90
17740;DHT22;8990;33.226;-97.150;2022-07-23T10:24:45;27.00;99.90
17740;DHT22;8990;33.226;-97.150;2022-07-23T10:30:25;27.00;99.90
17740;DHT22;8990;33.226;-97.150;2022-07-23T10:33:12;27.00;99.90
17740;DHT22;8990;33.226;-97.150;2022-07-23T10:35:52;26.90;99.90
17740;DHT22;8990;33.226;-97.150;2022-07-23T10:38:26;27.00;99.90
17740;DHT22;8990;33.226;-97.150;2022-07-23T10:40:58;27.00;99.90
17740;DHT22;8990;33.226;-97.150;2022-07-23T10:43:28;27.00;99.90
17740;DHT22;8990;33.226;-97.150;2022-07-23T10:46:24;27.00;99.90
17740;DHT22;8990;33.226;-97.150;2022-07-23T10:49:24;27.00;99.90
17740;DHT22;8990;33.226;-97.150;2022-07-23T10:52:21;27.00;99.90
17740;DHT22;8990;33.226;-97.150;2022-07-23T10:54:52;27.00;99.90
17740;DHT22;8990;33.226;-97.150;2022-07-23T10:57:23;27.00;99.90
17740;DHT22;8990;33.226;-97.150;2022-07-23T11:00:17;26.90;99.90
17740;DHT22;8990;33.226;-97.150;2022-07-23T11:02:49;26.80;99.90
17740;DHT22;8990;33.226;-97.150;2022-07-23T11:05:22;26.80;99.90
17740;DHT22;8990;33.226;-97.150;2022-07-23T11:08:18;26.80;99.90
17740;DHT22;8990;33.226;-97.150;2022-07-23T11:10:52;26.70;99.90
17740;DHT22;8990;33.226;-97.150;2022-07-23T11:13:47;26.80;99.90
17740;DHT22;8990;33.226;-97.150;2022-07-23T11:16:25;26.80;99.90
17740;DHT22;8990;33.226;-97.150;2022-07-23T11:19:11;26.80;99.90
17740;DHT22;8990;33.226;-97.150;2022-07-23T11:21:47;26.80;99.90
17740;DHT22;8990;33.226;-97.150;2022-07-23T11:24:20;26.80;99.90
17740;DHT22;8990;33.226;-97.150;2022-07-23T11:27:01;26.80;99.90
17740;DHT22;8990;33.226;-97.150;2022-07-23T11:29:44;26.90;99.90
17740;DHT22;8990;33.226;-97.150;2022-07-23T11:32:34;26.90;99.90
17740;DHT22;8990;33.226;-97.150;2022-07-23T11:35:25;26.90;99.90
17740;DHT22;8990;33.226;-97.150;2022-07-23T11:38:04;26.80;99.90
17740;DHT22;8990;33.226;-97.150;2022-07-23T11:40:33;26.70;99.90
17740;DHT22;8990;33.226;-97.150;2022-07-23T11:43:04;26.70;99.90
17740;DHT22;8990;33.226;-97.150;2022-07-23T11:45:37;26.70;99.90
17740;DHT22;8990;33.226;-97.150;2022-07-23T11:48:09;26.60;99.90
17740;DHT22;8990;33.226;-97.150;2022-07-23T11:50:45;26.60;99.90
17740;DHT22;8990;33.226;-97.150;2022-07-23T11:53:23;26.60;99.90
17740;DHT22;8990;33.226;-97.150;2022-07-23T11:55:57;26.40;99.90
17740;DHT22;8990;33.226;-97.150;2022-07-23T11:58:31;26.50;99.90
17740;DHT22;8990;33.226;-97.150;2022-07-23T12:01:00;26.60;99.90
17740;DHT22;8990;33.226;-97.150;2022-07-23T12:03:29;26.50;99.90
17740;DHT22;8990;33.226;-97.150;2022-07-23T12:05:59;26.50;99.90
17740;DHT22;8990;33.226;-97.150;2022-07-23T12:08:31;26.60;99.90
17740;DHT22;8990;33.226;-97.150;2022-07-23T12:10:59;26.60;99.90
17740;DHT22;8990;33.226;-97.150;2022-07-23T12:13:29;26.70;99.90
17740;DHT22;8990;33.226;-97.150;2022-07-23T12:15:59;26.70;99.90
17740;DHT22;8990;33.226;-97.150;2022-07-23T12:18:28;26.70;99.90
17740;DHT22;8990;33.226;-97.150;2022-07-23T12:21:03;26.80;99.90
17740;DHT22;8990;33.226;-97.150;2022-07-23T12:23:35;26.80;99.90
17740;DHT22;8990;33.226;-97.150;2022-07-23T12:26:05;26.70;99.90
17740;DHT22;8990;33.226;-97.150;2022-07-23T12:28:38;26.80;99.90
17740;DHT22;8990;33.226;-97.150;2022-07-23T12:31:08;26.90;99.90
17740;DHT22;8990;33.226;-97.150;2022-07-23T12:33:39;27.00;99.90
17740;DHT22;8990;33.226;-97.150;2022-07-23T12:36:10;27.00;99.90
17740;DHT22;8990;33.226;-97.150;2022-07-23T12:38:43;27.00;99.90
17740;DHT22;8990;33.226;-97.150;2022-07-23T12:41:16;27.10;99.90
17740;DHT22;8990;33.226;-97.150;2022-07-23T12:43:46;27.20;99.90
17740;DHT22;8990;33.226;-97.150;2022-07-23T12:46:17;27.30;99.90
17740;DHT22;8990;33.226;-97.150;2022-07-23T12:48:52;27.40;99.90
17740;DHT22;8990;33.226;-97.150;2022-07-23T12:51:23;27.90;99.90
17740;DHT22;8990;33.226;-97.150;2022-07-23T12:53:57;28.10;99.90
17740;DHT22;8990;33.226;-97.150;2022-07-23T12:56:29;28.40;99.90
17740;DHT22;8990;33.226;-97.150;2022-07-23T12:59:04;28.50;99.90
17740;DHT22;8990;33.226;-97.150;2022-07-23T13:01:35;28.40;99.90
17740;DHT22;8990;33.226;-97.150;2022-07-23T13:04:05;28.40;99.90
17740;DHT22;8990;33.226;-97.150;2022-07-23T13:06:36;28.40;99.90
17740;DHT22;8990;33.226;-97.150;2022-07-23T13:09:10;28.40;99.90
17740;DHT22;8990;33.226;-97.150;2022-07-23T13:11:39;28.50;99.90
17740;DHT22;8990;33.226;-97.150;2022-07-23T13:14:08;28.60;99.90
17740;DHT22;8990;33.226;-97.150;2022-07-23T13:16:38;28.70;99.90
17740;DHT22;8990;33.226;-97.150;2022-07-23T13:19:07;28.70;99.90
17740;DHT22;8990;33.226;-97.150;2022-07-23T13:21:36;28.80;99.90
17740;DHT22;8990;33.226;-97.150;2022-07-23T13:24:08;28.90;99.90
17740;DHT22;8990;33.226;-97.150;2022-07-23T13:26:38;28.90;99.90
17740;DHT22;8990;33.226;-97.150;2022-07-23T13:29:07;28.90;99.90
17740;DHT22;8990;33.226;-97.150;2022-07-23T13:31:38;29.00;99.90
17740;DHT22;8990;33.226;-97.150;2022-07-23T13:34:07;29.10;99.90
17740;DHT22;8990;33.226;-97.150;2022-07-23T13:36:36;29.10;99.90
17740;DHT22;8990;33.226;-97.150;2022-07-23T13:39:07;29.20;99.90
17740;DHT22;8990;33.226;-97.150;2022-07-23T13:41:37;29.30;99.90
17740;DHT22;8990;33.226;-97.150;2022-07-23T13:44:07;29.40;99.90
17740;DHT22;8990;33.226;-97.150;2022-07-23T13:46:36;29.60;99.90
17740;DHT22;8990;33.226;-97.150;2022-07-23T13:49:05;29.70;99.90
17740;DHT22;8990;33.226;-97.150;2022-07-23T13:51:34;29.70;99.90
17740;DHT22;8990;33.226;-97.150;2022-07-23T13:54:03;29.80;99.90
17740;DHT22;8990;33.226;-97.150;2022-07-23T13:56:34;29.80;99.90
17740;DHT22;8990;33.226;-97.150;2022-07-23T13:59:03;29.70;99.90
17740;DHT22;8990;33.226;-97.150;2022-07-23T14:01:32;29.80;99.90
17740;DHT22;8990;33.226;-97.150;2022-07-23T14:04:01;29.70;99.90
17740;DHT22;8990;33.226;-97.150;2022-07-23T14:06:31;29.80;99.90
17740;DHT22;8990;33.226;-97.150;2022-07-23T14:09:01;29.80;99.90
17740;DHT22;8990;33.226;-97.150;2022-07-23T14:11:30;30.00;99.90
17740;DHT22;8990;33.226;-97.150;2022-07-23T14:14:01;30.20;99.90
17740;DHT22;8990;33.226;-97.150;2022-07-23T14:16:30;30.30;99.90
17740;DHT22;8990;33.226;-97.150;2022-07-23T14:19:00;30.30;99.90
17740;DHT22;8990;33.226;-97.150;2022-07-23T14:21:29;30.40;99.90
17740;DHT22;8990;33.226;-97.150;2022-07-23T14:23:59;30.50;99.90
17740;DHT22;8990;33.226;-97.150;2022-07-23T14:26:28;30.50;99.90
17740;DHT22;8990;33.226;-97.150;2022-07-23T14:28:58;30.70;99.90
17740;DHT22;8990;33.226;-97.150;2022-07-23T14:31:29;30.70;99.90
17740;DHT22;8990;33.226;-97.150;2022-07-23T14:34:00;30.70;99.90
17740;DHT22;8990;33.226;-97.150;2022-07-23T14:36:30;30.70;99.90
17740;DHT22;8990;33.226;-97.150;2022-07-23T14:39:00;30.90;99.90
17740;DHT22;8990;33.226;-97.150;2022-07-23T14:41:29;30.80;99.90
17740;DHT22;8990;33.226;-97.150;2022-07-23T14:43:58;30.80;99.90
17740;DHT22;8990;33.226;-97.150;2022-07-23T14:46:29;30.90;99.90
17740;DHT22;8990;33.226;-97.150;2022-07-23T14:48:58;30.90;99.90
17740;DHT22;8990;33.226;-97.150;2022-07-23T14:51:28;31.00;99.90
17740;DHT22;8990;33.226;-97.150;2022-07-23T14:53:57;31.10;99.90
17740;DHT22;8990;33.226;-97.150;2022-07-23T14:56:27;31.20;99.90
17740;DHT22;8990;33.226;-97.150;2022-07-23T14:58:56;31.30;99.90
17740;DHT22;8990;33.226;-97.150;2022-07-23T15:01:25;31.40;99.90
17740;DHT22;8990;33.226;-97.150;2022-07-23T15:03:56;31.50;99.90
17740;DHT22;8990;33.226;-97.150;2022-07-23T15:06:25;31.70;99.90
17740;DHT22;8990;33.226;-97.150;2022-07-23T15:08:55;31.80;99.90
17740;DHT22;8990;33.226;-97.150;2022-07-23T15:11:24;31.90;99.90
17740;DHT22;8990;33.226;-97.150;2022-07-23T15:13:53;32.00;99.90
17740;DHT22;8990;33.226;-97.150;2022-07-23T15:16:22;32.10;99.90
17740;DHT22;8990;33.226;-97.150;2022-07-23T15:18:52;32.10;99.90
17740;DHT22;8990;33.226;-97.150;2022-07-23T15:21:25;32.10;99.90
17740;DHT22;8990;33.226;-97.150;2022-07-23T15:23:56;32.10;99.90
17740;DHT22;8990;33.226;-97.150;2022-07-23T15:26:28;32.10;99.90
17740;DHT22;8990;33.226;-97.150;2022-07-23T15:28:57;32.20;99.90
17740;DHT22;8990;33.226;-97.150;2022-07-23T15:31:29;32.30;99.90
17740;DHT22;8990;33.226;-97.150;2022-07-23T15:33:58;32.50;99.90
17740;DHT22;8990;33.226;-97.150;2022-07-23T15:36:29;32.50;99.90
17740;DHT22;8990;33.226;-97.150;2022-07-23T15:38:58;32.60;99.90
17740;DHT22;8990;33.226;-97.150;2022-07-23T15:41:28;32.70;99.90
17740;DHT22;8990;33.226;-97.150;2022-07-23T15:43:57;32.70;99.90
17740;DHT22;8990;33.226;-97.150;2022-07-23T15:46:28;32.70;99.90